sensor_id;sensor_type;location;lat;lon;timestamp;P1;durP1;ratioP1;P2;durP2;ratioP2
4575;SDS011;2300;51.874;8.430;2024-02-14T00:00:48;12.83;;;5.83;;
4575;SDS011;2300;51.874;8.430;2024-02-14T00:03:15;11.77;;;5.70;;
4575;SDS011;2300;51.874;8.430;2024-02-14T00:05:41;8.77;;;5.37;;
4575;SDS011;2300;51.874;8.430;2024-02-14T00:08:08;10.40;;;5.70;;
4575;SDS011;2300;51.874;8.430;2024-02-14T00:10:34;10.97;;;5.77;;
4575;SDS011;2300;51.874;8.430;2024-02-14T00:13:01;9.10;;;5.10;;
4575;SDS011;2300;51.874;8.430;2024-02-14T00:15:29;10.53;;;5.23;;
4575;SDS011;2300;51.874;8.430;2024-02-14T00:17:56;8.50;;;5.03;;
4575;SDS011;2300;51.874;8.430;2024-02-14T00:20:22;11.13;;;5.67;;
4575;SDS011;2300;51.874;8.430;2024-02-14T00:22:49;8.20;;;4.70;;
4575;SDS011;2300;51.874;8.430;2024-02-14T00:25:16;8.90;;;4.67;;
4575;SDS011;2300;51.874;8.430;2024-02-14T00:27:42;10.17;;;5.20;;
4575;SDS011;2300;51.874;8.430;2024-02-14T00:30:09;9.90;;;5.10;;
4575;SDS011;2300;51.874;8.430;2024-02-14T00:32:37;10.63;;;5.10;;
4575;SDS011;2300;51.874;8.430;2024-02-14T00:35:05;10.53;;;4.47;;
4575;SDS011;2300;51.874;8.430;2024-02-14T00:37:32;8.33;;;4.60;;
4575;SDS011;2300;51.874;8.430;2024-02-14T00:39:59;10.70;;;4.60;;
4575;SDS011;2300;51.874;8.430;2024-02-14T00:42:25;9.57;;;4.57;;
4575;SDS011;2300;51.874;8.430;2024-02-14T00:44:52;9.93;;;4.80;;
4575;SDS011;2300;51.874;8.430;2024-02-14T00:47:19;9.40;;;4.70;;
4575;SDS011;2300;51.874;8.430;2024-02-14T00:49:46;6.73;;;3.93;;
4575;SDS011;2300;51.874;8.430;2024-02-14T00:52:13;7.83;;;4.10;;
4575;SDS011;2300;51.874;8.430;2024-02-14T00:54:44;10.47;;;4.33;;
4575;SDS011;2300;51.874;8.430;2024-02-14T00:57:11;9.80;;;3.97;;
4575;SDS011;2300;51.874;8.430;2024-02-14T00:59:37;7.97;;;3.93;;
4575;SDS011;2300;51.874;8.430;2024-02-14T01:02:04;7.47;;;3.97;;
4575;SDS011;2300;51.874;8.430;2024-02-14T01:04:30;6.93;;;4.17;;
4575;SDS011;2300;51.874;8.430;2024-02-14T01:06:58;9.00;;;3.87;;
4575;SDS011;2300;51.874;8.430;2024-02-14T01:09:25;7.70;;;4.07;;
4575;SDS011;2300;51.874;8.430;2024-02-14T01:11:51;10.00;;;4.10;;
4575;SDS011;2300;51.874;8.430;2024-02-14T01:14:18;6.07;;;3.53;;
4575;SDS011;2300;51.874;8.430;2024-02-14T01:16:44;6.17;;;3.20;;
4575;SDS011;2300;51.874;8.430;2024-02-14T01:19:11;7.27;;;3.47;;
4575;SDS011;2300;51.874;8.430;2024-02-14T01:21:38;7.33;;;3.70;;
4575;SDS011;2300;51.874;8.430;2024-02-14T01:24:06;7.03;;;3.63;;
4575;SDS011;2300;51.874;8.430;2024-02-14T01:26:34;6.17;;;3.17;;
4575;SDS011;2300;51.874;8.430;2024-02-14T01:29:00;5.43;;;3.23;;
4575;SDS011;2300;51.874;8.430;2024-02-14T01:31:27;6.83;;;3.77;;
4575;SDS011;2300;51.874;8.430;2024-02-14T01:33:54;6.53;;;3.40;;
4575;SDS011;2300;51.874;8.430;2024-02-14T01:36:21;6.73;;;3.60;;
4575;SDS011;2300;51.874;8.430;2024-02-14T01:38:48;5.63;;;2.97;;
4575;SDS011;2300;51.874;8.430;2024-02-14T01:41:16;5.80;;;3.37;;
4575;SDS011;2300;51.874;8.430;2024-02-14T01:43:42;8.00;;;3.30;;
4575;SDS011;2300;51.874;8.430;2024-02-14T01:46:09;5.90;;;3.27;;
4575;SDS011;2300;51.874;8.430;2024-02-14T01:48:36;5.67;;;3.60;;
4575;SDS011;2300;51.874;8.430;2024-02-14T01:51:04;7.60;;;3.10;;
4575;SDS011;2300;51.874;8.430;2024-02-14T01:53:33;8.03;;;3.47;;
4575;SDS011;2300;51.874;8.430;2024-02-14T01:56:02;8.13;;;3.10;;
4575;SDS011;2300;51.874;8.430;2024-02-14T01:58:32;6.27;;;3.40;;
4575;SDS011;2300;51.874;8.430;2024-02-14T02:01:00;7.90;;;3.50;;
4575;SDS011;2300;51.874;8.430;2024-02-14T02:03:27;5.97;;;3.20;;
4575;SDS011;2300;51.874;8.430;2024-02-14T02:05:54;8.27;;;4.10;;
4575;SDS011;2300;51.874;8.430;2024-02-14T02:08:23;6.30;;;3.40;;
4575;SDS011;2300;51.874;8.430;2024-02-14T02:10:49;6.33;;;3.40;;
4575;SDS011;2300;51.874;8.430;2024-02-14T02:13:16;6.50;;;3.40;;
4575;SDS011;2300;51.874;8.430;2024-02-14T02:15:44;6.70;;;3.40;;
4575;SDS011;2300;51.874;8.430;2024-02-14T02:18:10;7.53;;;3.40;;
4575;SDS011;2300;51.874;8.430;2024-02-14T02:20:38;5.83;;;3.20;;
4575;SDS011;2300;51.874;8.430;2024-02-14T02:23:08;5.90;;;3.00;;
4575;SDS011;2300;51.874;8.430;2024-02-14T02:25:37;6.80;;;2.90;;
4575;SDS011;2300;51.874;8.430;2024-02-14T02:28:04;6.63;;;2.90;;
4575;SDS011;2300;51.874;8.430;2024-02-14T02:30:31;7.17;;;3.17;;
4575;SDS011;2300;51.874;8.430;2024-02-14T02:33:00;7.40;;;3.50;;
4575;SDS011;2300;51.874;8.430;2024-02-14T02:35:27;5.50;;;2.67;;
4575;SDS011;2300;51.874;8.430;2024-02-14T02:37:54;6.43;;;3.00;;
4575;SDS011;2300;51.874;8.430;2024-02-14T02:40:22;7.43;;;3.00;;
4575;SDS011;2300;51.874;8.430;2024-02-14T02:42:49;4.43;;;2.67;;
4575;SDS011;2300;51.874;8.430;2024-02-14T02:45:15;6.60;;;2.80;;
4575;SDS011;2300;51.874;8.430;2024-02-14T02:47:42;5.13;;;2.30;;
4575;SDS011;2300;51.874;8.430;2024-02-14T02:50:08;5.97;;;2.63;;
4575;SDS011;2300;51.874;8.430;2024-02-14T02:52:35;6.17;;;2.43;;
4575;SDS011;2300;51.874;8.430;2024-02-14T02:55:02;7.77;;;2.47;;
4575;SDS011;2300;51.874;8.430;2024-02-14T02:57:31;6.07;;;2.73;;
4575;SDS011;2300;51.874;8.430;2024-02-14T02:59:59;5.30;;;2.83;;
4575;SDS011;2300;51.874;8.430;2024-02-14T03:02:26;8.77;;;2.87;;
4575;SDS011;2300;51.874;8.430;2024-02-14T03:04:52;5.00;;;2.60;;
4575;SDS011;2300;51.874;8.430;2024-02-14T03:07:19;4.70;;;2.40;;
4575;SDS011;2300;51.874;8.430;2024-02-14T03:09:45;6.43;;;2.40;;
4575;SDS011;2300;51.874;8.430;2024-02-14T03:12:12;5.40;;;2.00;;
4575;SDS011;2300;51.874;8.430;2024-02-14T03:14:42;3.63;;;1.80;;
4575;SDS011;2300;51.874;8.430;2024-02-14T03:17:09;7.50;;;2.10;;
4575;SDS011;2300;51.874;8.430;2024-02-14T03:19:36;5.77;;;2.20;;
4575;SDS011;2300;51.874;8.430;2024-02-14T03:22:04;6.90;;;2.30;;
4575;SDS011;2300;51.874;8.430;2024-02-14T03:24:33;4.80;;;2.13;;
4575;SDS011;2300;51.874;8.430;2024-02-14T03:27:02;3.97;;;2.00;;
4575;SDS011;2300;51.874;8.430;2024-02-14T03:29:30;4.87;;;1.90;;
4575;SDS011;2300;51.874;8.430;2024-02-14T03:31:58;3.90;;;2.00;;
4575;SDS011;2300;51.874;8.430;2024-02-14T03:34:29;4.43;;;1.80;;
4575;SDS011;2300;51.874;8.430;2024-02-14T03:36:58;3.90;;;1.77;;
4575;SDS011;2300;51.874;8.430;2024-02-14T03:39:24;3.30;;;2.00;;
4575;SDS011;2300;51.874;8.430;2024-02-14T03:41:51;5.23;;;1.80;;
4575;SDS011;2300;51.874;8.430;2024-02-14T03:44:17;3.20;;;1.80;;
4575;SDS011;2300;51.874;8.430;2024-02-14T03:46:44;5.60;;;1.80;;
4575;SDS011;2300;51.874;8.430;2024-02-14T03:49:14;6.50;;;2.00;;
4575;SDS011;2300;51.874;8.430;2024-02-14T03:51:40;5.17;;;1.60;;
4575;SDS011;2300;51.874;8.430;2024-02-14T03:54:07;3.60;;;1.93;;
4575;SDS011;2300;51.874;8.430;2024-02-14T03:56:33;5.17;;;2.23;;
4575;SDS011;2300;51.874;8.430;2024-02-14T03:59:02;4.87;;;1.93;;
4575;SDS011;2300;51.874;8.430;2024-02-14T04:01:32;4.27;;;1.93;;
4575;SDS011;2300;51.874;8.430;2024-02-14T04:03:59;3.83;;;1.77;;
4575;SDS011;2300;51.874;8.430;2024-02-14T04:06:27;3.67;;;2.07;;
4575;SDS011;2300;51.874;8.430;2024-02-14T04:08:56;4.83;;;2.00;;
4575;SDS011;2300;51.874;8.430;2024-02-14T04:11:23;4.27;;;2.10;;
4575;SDS011;2300;51.874;8.430;2024-02-14T04:13:50;6.10;;;1.87;;
4575;SDS011;2300;51.874;8.430;2024-02-14T04:16:18;4.23;;;2.17;;
4575;SDS011;2300;51.874;8.430;2024-02-14T04:18:45;5.83;;;2.30;;
4575;SDS011;2300;51.874;8.430;2024-02-14T04:21:12;4.77;;;2.23;;
4575;SDS011;2300;51.874;8.430;2024-02-14T04:23:40;4.33;;;2.60;;
4575;SDS011;2300;51.874;8.430;2024-02-14T04:26:07;5.43;;;2.73;;
4575;SDS011;2300;51.874;8.430;2024-02-14T04:28:34;5.47;;;2.50;;
4575;SDS011;2300;51.874;8.430;2024-02-14T04:31:00;5.27;;;2.33;;
4575;SDS011;2300;51.874;8.430;2024-02-14T04:33:26;5.57;;;2.27;;
4575;SDS011;2300;51.874;8.430;2024-02-14T04:35:53;6.07;;;2.87;;
4575;SDS011;2300;51.874;8.430;2024-02-14T04:38:20;6.13;;;3.00;;
4575;SDS011;2300;51.874;8.430;2024-02-14T04:40:48;4.80;;;2.57;;
4575;SDS011;2300;51.874;8.430;2024-02-14T04:43:13;4.70;;;3.03;;
4575;SDS011;2300;51.874;8.430;2024-02-14T04:45:41;4.90;;;3.17;;
4575;SDS011;2300;51.874;8.430;2024-02-14T04:48:08;5.23;;;3.03;;
4575;SDS011;2300;51.874;8.430;2024-02-14T04:50:35;7.20;;;3.40;;
4575;SDS011;2300;51.874;8.430;2024-02-14T04:53:02;7.80;;;3.53;;
4575;SDS011;2300;51.874;8.430;2024-02-14T04:55:28;6.97;;;3.40;;
4575;SDS011;2300;51.874;8.430;2024-02-14T04:57:56;4.80;;;3.30;;
4575;SDS011;2300;51.874;8.430;2024-02-14T05:00:23;5.50;;;3.70;;
4575;SDS011;2300;51.874;8.430;2024-02-14T05:02:49;5.80;;;4.07;;
4575;SDS011;2300;51.874;8.430;2024-02-14T05:05:16;6.50;;;3.30;;
4575;SDS011;2300;51.874;8.430;2024-02-14T05:07:43;7.47;;;3.93;;
4575;SDS011;2300;51.874;8.430;2024-02-14T05:10:09;6.37;;;4.10;;
4575;SDS011;2300;51.874;8.430;2024-02-14T05:12:36;5.23;;;3.13;;
4575;SDS011;2300;51.874;8.430;2024-02-14T05:15:04;5.27;;;3.27;;
4575;SDS011;2300;51.874;8.430;2024-02-14T05:17:31;6.40;;;3.73;;
4575;SDS011;2300;51.874;8.430;2024-02-14T05:19:58;6.57;;;3.60;;
4575;SDS011;2300;51.874;8.430;2024-02-14T05:22:24;5.17;;;3.13;;
4575;SDS011;2300;51.874;8.430;2024-02-14T05:24:50;6.13;;;3.10;;
4575;SDS011;2300;51.874;8.430;2024-02-14T05:27:17;4.70;;;3.03;;
4575;SDS011;2300;51.874;8.430;2024-02-14T05:29:43;4.63;;;3.00;;
4575;SDS011;2300;51.874;8.430;2024-02-14T05:32:12;7.03;;;3.00;;
4575;SDS011;2300;51.874;8.430;2024-02-14T05:34:39;5.67;;;3.10;;
4575;SDS011;2300;51.874;8.430;2024-02-14T05:37:05;6.93;;;2.90;;
4575;SDS011;2300;51.874;8.430;2024-02-14T05:39:33;5.90;;;3.17;;
4575;SDS011;2300;51.874;8.430;2024-02-14T05:41:59;6.63;;;2.87;;
4575;SDS011;2300;51.874;8.430;2024-02-14T05:44:26;11.40;;;3.70;;
4575;SDS011;2300;51.874;8.430;2024-02-14T05:46:53;5.30;;;3.30;;
4575;SDS011;2300;51.874;8.430;2024-02-14T05:49:21;5.47;;;2.90;;
4575;SDS011;2300;51.874;8.430;2024-02-14T05:51:49;4.10;;;2.80;;
4575;SDS011;2300;51.874;8.430;2024-02-14T05:54:17;5.90;;;3.60;;
4575;SDS011;2300;51.874;8.430;2024-02-14T05:56:43;5.50;;;3.30;;
4575;SDS011;2300;51.874;8.430;2024-02-14T05:59:10;4.73;;;3.00;;
4575;SDS011;2300;51.874;8.430;2024-02-14T06:01:36;7.07;;;3.60;;
4575;SDS011;2300;51.874;8.430;2024-02-14T06:04:03;5.23;;;3.20;;
4575;SDS011;2300;51.874;8.430;2024-02-14T06:06:31;5.13;;;3.47;;
4575;SDS011;2300;51.874;8.430;2024-02-14T06:08:57;6.20;;;3.50;;
4575;SDS011;2300;51.874;8.430;2024-02-14T06:11:24;5.57;;;4.20;;
4575;SDS011;2300;51.874;8.430;2024-02-14T06:13:50;6.10;;;3.80;;
4575;SDS011;2300;51.874;8.430;2024-02-14T06:16:17;6.97;;;4.50;;
4575;SDS011;2300;51.874;8.430;2024-02-14T06:18:44;8.03;;;4.43;;
4575;SDS011;2300;51.874;8.430;2024-02-14T06:21:11;7.47;;;4.40;;
4575;SDS011;2300;51.874;8.430;2024-02-14T06:23:39;7.67;;;4.97;;
4575;SDS011;2300;51.874;8.430;2024-02-14T06:26:05;7.50;;;5.30;;
4575;SDS011;2300;51.874;8.430;2024-02-14T06:28:32;7.53;;;5.33;;
4575;SDS011;2300;51.874;8.430;2024-02-14T06:30:59;7.50;;;5.30;;
4575;SDS011;2300;51.874;8.430;2024-02-14T06:33:25;10.93;;;6.33;;
4575;SDS011;2300;51.874;8.430;2024-02-14T06:35:52;7.67;;;5.50;;
4575;SDS011;2300;51.874;8.430;2024-02-14T06:38:18;10.73;;;6.70;;
4575;SDS011;2300;51.874;8.430;2024-02-14T06:40:46;10.03;;;6.70;;
4575;SDS011;2300;51.874;8.430;2024-02-14T06:43:13;10.67;;;6.80;;
4575;SDS011;2300;51.874;8.430;2024-02-14T06:45:39;13.07;;;7.63;;
4575;SDS011;2300;51.874;8.430;2024-02-14T06:48:07;11.43;;;7.07;;
4575;SDS011;2300;51.874;8.430;2024-02-14T06:50:34;12.10;;;7.13;;
4575;SDS011;2300;51.874;8.430;2024-02-14T06:53:00;13.17;;;8.90;;
4575;SDS011;2300;51.874;8.430;2024-02-14T06:55:27;11.20;;;7.87;;
4575;SDS011;2300;51.874;8.430;2024-02-14T06:57:55;10.60;;;7.77;;
4575;SDS011;2300;51.874;8.430;2024-02-14T07:00:21;12.93;;;8.13;;
4575;SDS011;2300;51.874;8.430;2024-02-14T07:02:48;10.40;;;7.57;;
4575;SDS011;2300;51.874;8.430;2024-02-14T07:05:14;11.43;;;7.67;;
4575;SDS011;2300;51.874;8.430;2024-02-14T07:07:41;10.60;;;8.23;;
4575;SDS011;2300;51.874;8.430;2024-02-14T07:10:08;11.97;;;8.00;;
4575;SDS011;2300;51.874;8.430;2024-02-14T07:12:35;12.77;;;8.67;;
4575;SDS011;2300;51.874;8.430;2024-02-14T07:15:03;12.13;;;8.27;;
4575;SDS011;2300;51.874;8.430;2024-02-14T07:17:31;12.67;;;8.33;;
4575;SDS011;2300;51.874;8.430;2024-02-14T07:19:58;12.43;;;8.37;;
4575;SDS011;2300;51.874;8.430;2024-02-14T07:22:24;10.73;;;8.40;;
4575;SDS011;2300;51.874;8.430;2024-02-14T07:24:50;10.90;;;8.70;;
4575;SDS011;2300;51.874;8.430;2024-02-14T07:27:18;10.30;;;8.00;;
4575;SDS011;2300;51.874;8.430;2024-02-14T07:29:45;10.10;;;7.37;;
4575;SDS011;2300;51.874;8.430;2024-02-14T07:32:13;10.10;;;7.87;;
4575;SDS011;2300;51.874;8.430;2024-02-14T07:34:40;10.53;;;7.67;;
4575;SDS011;2300;51.874;8.430;2024-02-14T07:37:06;12.77;;;7.43;;
4575;SDS011;2300;51.874;8.430;2024-02-14T07:39:33;12.43;;;7.53;;
4575;SDS011;2300;51.874;8.430;2024-02-14T07:42:00;10.53;;;7.57;;
4575;SDS011;2300;51.874;8.430;2024-02-14T07:44:27;9.37;;;7.43;;
4575;SDS011;2300;51.874;8.430;2024-02-14T07:46:54;9.50;;;7.17;;
4575;SDS011;2300;51.874;8.430;2024-02-14T07:49:22;9.93;;;7.30;;
4575;SDS011;2300;51.874;8.430;2024-02-14T07:51:48;10.20;;;7.57;;
4575;SDS011;2300;51.874;8.430;2024-02-14T07:54:15;9.50;;;6.67;;
4575;SDS011;2300;51.874;8.430;2024-02-14T07:56:41;9.40;;;7.17;;
4575;SDS011;2300;51.874;8.430;2024-02-14T07:59:08;8.90;;;6.87;;
4575;SDS011;2300;51.874;8.430;2024-02-14T08:01:34;11.10;;;7.37;;
4575;SDS011;2300;51.874;8.430;2024-02-14T08:04:01;7.37;;;6.13;;
4575;SDS011;2300;51.874;8.430;2024-02-14T08:06:28;11.67;;;7.03;;
4575;SDS011;2300;51.874;8.430;2024-02-14T08:08:55;8.73;;;6.70;;
4575;SDS011;2300;51.874;8.430;2024-02-14T08:11:26;10.57;;;6.77;;
4575;SDS011;2300;51.874;8.430;2024-02-14T08:13:54;8.00;;;6.50;;
4575;SDS011;2300;51.874;8.430;2024-02-14T08:16:20;8.73;;;6.63;;
4575;SDS011;2300;51.874;8.430;2024-02-14T08:18:47;7.33;;;6.53;;
4575;SDS011;2300;51.874;8.430;2024-02-14T08:21:15;10.73;;;6.87;;
4575;SDS011;2300;51.874;8.430;2024-02-14T08:23:43;7.30;;;6.40;;
4575;SDS011;2300;51.874;8.430;2024-02-14T08:26:10;7.00;;;6.17;;
4575;SDS011;2300;51.874;8.430;2024-02-14T08:28:36;8.93;;;6.10;;
4575;SDS011;2300;51.874;8.430;2024-02-14T08:31:03;9.57;;;5.70;;
4575;SDS011;2300;51.874;8.430;2024-02-14T08:33:35;9.43;;;5.90;;
4575;SDS011;2300;51.874;8.430;2024-02-14T08:36:03;7.77;;;5.73;;
4575;SDS011;2300;51.874;8.430;2024-02-14T08:38:29;6.80;;;5.10;;
4575;SDS011;2300;51.874;8.430;2024-02-14T08:40:58;6.03;;;5.20;;
4575;SDS011;2300;51.874;8.430;2024-02-14T08:43:25;8.43;;;5.67;;
4575;SDS011;2300;51.874;8.430;2024-02-14T08:45:53;7.27;;;5.23;;
4575;SDS011;2300;51.874;8.430;2024-02-14T08:48:19;8.70;;;5.40;;
4575;SDS011;2300;51.874;8.430;2024-02-14T08:50:46;6.33;;;5.33;;
4575;SDS011;2300;51.874;8.430;2024-02-14T08:53:12;8.30;;;5.63;;
4575;SDS011;2300;51.874;8.430;2024-02-14T08:55:39;7.80;;;5.40;;
4575;SDS011;2300;51.874;8.430;2024-02-14T08:58:07;7.70;;;5.07;;
4575;SDS011;2300;51.874;8.430;2024-02-14T09:00:34;8.57;;;6.20;;
4575;SDS011;2300;51.874;8.430;2024-02-14T09:03:01;7.97;;;5.57;;
4575;SDS011;2300;51.874;8.430;2024-02-14T09:05:29;7.80;;;5.77;;
4575;SDS011;2300;51.874;8.430;2024-02-14T09:07:56;7.53;;;5.87;;
4575;SDS011;2300;51.874;8.430;2024-02-14T09:10:22;8.00;;;6.77;;
4575;SDS011;2300;51.874;8.430;2024-02-14T09:12:49;10.70;;;7.00;;
4575;SDS011;2300;51.874;8.430;2024-02-14T09:15:17;8.30;;;7.13;;
4575;SDS011;2300;51.874;8.430;2024-02-14T09:17:44;9.87;;;7.07;;
4575;SDS011;2300;51.874;8.430;2024-02-14T09:20:11;8.67;;;7.17;;
4575;SDS011;2300;51.874;8.430;2024-02-14T09:22:39;8.17;;;6.77;;
4575;SDS011;2300;51.874;8.430;2024-02-14T09:25:06;9.10;;;6.93;;
4575;SDS011;2300;51.874;8.430;2024-02-14T09:27:34;8.70;;;7.50;;
4575;SDS011;2300;51.874;8.430;2024-02-14T09:30:01;10.17;;;7.50;;
4575;SDS011;2300;51.874;8.430;2024-02-14T09:32:30;10.70;;;7.60;;
4575;SDS011;2300;51.874;8.430;2024-02-14T09:34:57;9.40;;;7.10;;
4575;SDS011;2300;51.874;8.430;2024-02-14T09:37:24;9.33;;;7.23;;
4575;SDS011;2300;51.874;8.430;2024-02-14T09:39:50;9.07;;;7.27;;
4575;SDS011;2300;51.874;8.430;2024-02-14T09:42:18;10.10;;;8.03;;
4575;SDS011;2300;51.874;8.430;2024-02-14T09:44:50;9.57;;;7.63;;
4575;SDS011;2300;51.874;8.430;2024-02-14T09:47:23;10.17;;;7.80;;
4575;SDS011;2300;51.874;8.430;2024-02-14T09:49:51;9.97;;;7.70;;
4575;SDS011;2300;51.874;8.430;2024-02-14T09:52:19;9.47;;;6.80;;
4575;SDS011;2300;51.874;8.430;2024-02-14T09:54:47;8.33;;;6.57;;
4575;SDS011;2300;51.874;8.430;2024-02-14T09:57:14;9.23;;;6.93;;
4575;SDS011;2300;51.874;8.430;2024-02-14T09:59:43;9.23;;;6.10;;
4575;SDS011;2300;51.874;8.430;2024-02-14T10:02:10;9.00;;;6.50;;
4575;SDS011;2300;51.874;8.430;2024-02-14T10:04:37;9.90;;;6.37;;
4575;SDS011;2300;51.874;8.430;2024-02-14T10:07:05;6.03;;;5.43;;
4575;SDS011;2300;51.874;8.430;2024-02-14T10:09:39;6.00;;;5.33;;
4575;SDS011;2300;51.874;8.430;2024-02-14T10:12:06;6.33;;;5.23;;
4575;SDS011;2300;51.874;8.430;2024-02-14T10:14:34;8.00;;;5.33;;
4575;SDS011;2300;51.874;8.430;2024-02-14T10:17:00;6.50;;;5.80;;
4575;SDS011;2300;51.874;8.430;2024-02-14T10:19:28;8.03;;;5.47;;
4575;SDS011;2300;51.874;8.430;2024-02-14T10:21:55;8.00;;;5.90;;
4575;SDS011;2300;51.874;8.430;2024-02-14T10:24:25;8.87;;;6.27;;
4575;SDS011;2300;51.874;8.430;2024-02-14T10:26:51;9.20;;;6.27;;
4575;SDS011;2300;51.874;8.430;2024-02-14T10:29:18;9.60;;;6.00;;
4575;SDS011;2300;51.874;8.430;2024-02-14T10:31:45;9.73;;;6.53;;
4575;SDS011;2300;51.874;8.430;2024-02-14T10:34:12;7.67;;;5.93;;
4575;SDS011;2300;51.874;8.430;2024-02-14T10:36:39;6.87;;;5.63;;
4575;SDS011;2300;51.874;8.430;2024-02-14T10:39:08;6.57;;;5.60;;
4575;SDS011;2300;51.874;8.430;2024-02-14T10:41:38;8.13;;;5.57;;
4575;SDS011;2300;51.874;8.430;2024-02-14T10:44:04;6.30;;;5.60;;
4575;SDS011;2300;51.874;8.430;2024-02-14T10:46:31;7.90;;;5.43;;
4575;SDS011;2300;51.874;8.430;2024-02-14T10:49:02;7.33;;;5.10;;
4575;SDS011;2300;51.874;8.430;2024-02-14T10:51:30;7.90;;;6.03;;
4575;SDS011;2300;51.874;8.430;2024-02-14T10:53:58;8.73;;;5.47;;
4575;SDS011;2300;51.874;8.430;2024-02-14T10:56:27;6.90;;;5.90;;
4575;SDS011;2300;51.874;8.430;2024-02-14T10:58:56;11.30;;;6.10;;
4575;SDS011;2300;51.874;8.430;2024-02-14T11:01:24;7.60;;;6.10;;
4575;SDS011;2300;51.874;8.430;2024-02-14T11:03:52;6.87;;;5.20;;
4575;SDS011;2300;51.874;8.430;2024-02-14T11:06:21;8.33;;;5.30;;
4575;SDS011;2300;51.874;8.430;2024-02-14T11:08:56;8.23;;;5.87;;
4575;SDS011;2300;51.874;8.430;2024-02-14T11:11:27;9.03;;;5.60;;
4575;SDS011;2300;51.874;8.430;2024-02-14T11:13:56;6.87;;;5.87;;
4575;SDS011;2300;51.874;8.430;2024-02-14T11:16:23;8.90;;;5.40;;
4575;SDS011;2300;51.874;8.430;2024-02-14T11:18:53;9.50;;;6.00;;
4575;SDS011;2300;51.874;8.430;2024-02-14T11:21:19;9.33;;;5.57;;
4575;SDS011;2300;51.874;8.430;2024-02-14T11:23:52;6.57;;;4.80;;
4575;SDS011;2300;51.874;8.430;2024-02-14T11:26:20;6.47;;;5.03;;
4575;SDS011;2300;51.874;8.430;2024-02-14T11:28:48;8.03;;;4.33;;
4575;SDS011;2300;51.874;8.430;2024-02-14T11:31:17;6.13;;;4.60;;
4575;SDS011;2300;51.874;8.430;2024-02-14T11:33:44;6.03;;;3.97;;
4575;SDS011;2300;51.874;8.430;2024-02-14T11:36:13;4.40;;;3.70;;
4575;SDS011;2300;51.874;8.430;2024-02-14T11:38:42;5.97;;;3.60;;
4575;SDS011;2300;51.874;8.430;2024-02-14T11:41:10;5.07;;;3.67;;
4575;SDS011;2300;51.874;8.430;2024-02-14T11:43:37;4.80;;;3.13;;
4575;SDS011;2300;51.874;8.430;2024-02-14T11:46:04;3.93;;;3.40;;
4575;SDS011;2300;51.874;8.430;2024-02-14T11:48:32;3.53;;;3.07;;
4575;SDS011;2300;51.874;8.430;2024-02-14T11:50:59;4.47;;;3.13;;
4575;SDS011;2300;51.874;8.430;2024-02-14T11:53:25;5.67;;;3.40;;
4575;SDS011;2300;51.874;8.430;2024-02-14T11:55:53;3.50;;;3.20;;
4575;SDS011;2300;51.874;8.430;2024-02-14T11:58:21;4.63;;;3.20;;
4575;SDS011;2300;51.874;8.430;2024-02-14T12:00:48;4.10;;;3.40;;
4575;SDS011;2300;51.874;8.430;2024-02-14T12:03:15;5.23;;;3.30;;
4575;SDS011;2300;51.874;8.430;2024-02-14T12:05:45;4.33;;;3.70;;
4575;SDS011;2300;51.874;8.430;2024-02-14T12:08:12;5.17;;;3.97;;
4575;SDS011;2300;51.874;8.430;2024-02-14T12:10:41;4.90;;;4.00;;
4575;SDS011;2300;51.874;8.430;2024-02-14T12:13:12;6.73;;;3.60;;
4575;SDS011;2300;51.874;8.430;2024-02-14T12:15:39;5.43;;;3.43;;
4575;SDS011;2300;51.874;8.430;2024-02-14T12:18:07;5.47;;;3.47;;
4575;SDS011;2300;51.874;8.430;2024-02-14T12:20:35;4.03;;;2.97;;
4575;SDS011;2300;51.874;8.430;2024-02-14T12:23:03;5.67;;;3.80;;
4575;SDS011;2300;51.874;8.430;2024-02-14T12:25:30;11.53;;;7.77;;
4575;SDS011;2300;51.874;8.430;2024-02-14T12:27:57;4.83;;;3.77;;
4575;SDS011;2300;51.874;8.430;2024-02-14T12:30:26;4.07;;;3.20;;
4575;SDS011;2300;51.874;8.430;2024-02-14T12:33:10;4.17;;;2.50;;
4575;SDS011;2300;51.874;8.430;2024-02-14T12:35:36;3.63;;;2.50;;
4575;SDS011;2300;51.874;8.430;2024-02-14T12:38:08;3.43;;;2.37;;
4575;SDS011;2300;51.874;8.430;2024-02-14T12:40:35;4.77;;;2.33;;
4575;SDS011;2300;51.874;8.430;2024-02-14T12:43:02;3.83;;;2.30;;
4575;SDS011;2300;51.874;8.430;2024-02-14T12:45:30;3.73;;;2.57;;
4575;SDS011;2300;51.874;8.430;2024-02-14T12:47:57;2.77;;;2.33;;
4575;SDS011;2300;51.874;8.430;2024-02-14T12:50:24;2.70;;;2.20;;
4575;SDS011;2300;51.874;8.430;2024-02-14T12:52:50;4.13;;;2.57;;
4575;SDS011;2300;51.874;8.430;2024-02-14T12:55:18;3.90;;;2.57;;
4575;SDS011;2300;51.874;8.430;2024-02-14T12:57:45;5.03;;;2.40;;
4575;SDS011;2300;51.874;8.430;2024-02-14T13:00:13;7.67;;;3.13;;
4575;SDS011;2300;51.874;8.430;2024-02-14T13:02:40;4.70;;;3.03;;
4575;SDS011;2300;51.874;8.430;2024-02-14T13:05:07;4.00;;;3.10;;
4575;SDS011;2300;51.874;8.430;2024-02-14T13:07:34;4.63;;;3.20;;
4575;SDS011;2300;51.874;8.430;2024-02-14T13:10:01;4.70;;;3.40;;
4575;SDS011;2300;51.874;8.430;2024-02-14T13:12:29;7.37;;;3.40;;
4575;SDS011;2300;51.874;8.430;2024-02-14T13:14:56;6.50;;;2.40;;
4575;SDS011;2300;51.874;8.430;2024-02-14T13:17:22;5.57;;;2.77;;
4575;SDS011;2300;51.874;8.430;2024-02-14T13:19:50;5.73;;;2.83;;
4575;SDS011;2300;51.874;8.430;2024-02-14T13:22:21;3.17;;;2.50;;
4575;SDS011;2300;51.874;8.430;2024-02-14T13:24:48;4.17;;;2.43;;
4575;SDS011;2300;51.874;8.430;2024-02-14T13:27:15;4.20;;;2.43;;
4575;SDS011;2300;51.874;8.430;2024-02-14T13:29:43;5.33;;;2.37;;
4575;SDS011;2300;51.874;8.430;2024-02-14T13:32:09;7.10;;;2.23;;
4575;SDS011;2300;51.874;8.430;2024-02-14T13:34:36;2.77;;;2.10;;
4575;SDS011;2300;51.874;8.430;2024-02-14T13:37:03;6.37;;;2.13;;
4575;SDS011;2300;51.874;8.430;2024-02-14T13:39:30;4.67;;;2.50;;
4575;SDS011;2300;51.874;8.430;2024-02-14T13:41:57;3.87;;;2.30;;
4575;SDS011;2300;51.874;8.430;2024-02-14T13:44:25;5.43;;;2.20;;
4575;SDS011;2300;51.874;8.430;2024-02-14T13:46:52;3.77;;;2.30;;
4575;SDS011;2300;51.874;8.430;2024-02-14T13:49:19;4.27;;;2.37;;
4575;SDS011;2300;51.874;8.430;2024-02-14T13:51:47;5.27;;;2.30;;
4575;SDS011;2300;51.874;8.430;2024-02-14T13:54:15;5.10;;;2.50;;
4575;SDS011;2300;51.874;8.430;2024-02-14T13:56:41;3.87;;;2.53;;
4575;SDS011;2300;51.874;8.430;2024-02-14T13:59:08;4.10;;;2.70;;
4575;SDS011;2300;51.874;8.430;2024-02-14T14:01:34;4.80;;;2.87;;
4575;SDS011;2300;51.874;8.430;2024-02-14T14:04:03;7.63;;;3.40;;
4575;SDS011;2300;51.874;8.430;2024-02-14T14:06:30;7.03;;;3.67;;
4575;SDS011;2300;51.874;8.430;2024-02-14T14:08:57;4.80;;;3.10;;
4575;SDS011;2300;51.874;8.430;2024-02-14T14:11:24;6.90;;;3.50;;
4575;SDS011;2300;51.874;8.430;2024-02-14T14:13:50;5.13;;;2.83;;
4575;SDS011;2300;51.874;8.430;2024-02-14T14:16:17;4.27;;;3.10;;
4575;SDS011;2300;51.874;8.430;2024-02-14T14:18:46;5.77;;;3.33;;
4575;SDS011;2300;51.874;8.430;2024-02-14T14:21:14;4.20;;;2.97;;
4575;SDS011;2300;51.874;8.430;2024-02-14T14:23:40;4.73;;;3.40;;
4575;SDS011;2300;51.874;8.430;2024-02-14T14:26:07;5.23;;;3.20;;
4575;SDS011;2300;51.874;8.430;2024-02-14T14:28:34;6.90;;;4.10;;
4575;SDS011;2300;51.874;8.430;2024-02-14T14:31:00;8.23;;;4.00;;
4575;SDS011;2300;51.874;8.430;2024-02-14T14:33:27;6.50;;;3.40;;
4575;SDS011;2300;51.874;8.430;2024-02-14T14:35:55;6.83;;;3.50;;
4575;SDS011;2300;51.874;8.430;2024-02-14T14:38:23;5.83;;;3.73;;
4575;SDS011;2300;51.874;8.430;2024-02-14T14:40:51;5.27;;;3.57;;
4575;SDS011;2300;51.874;8.430;2024-02-14T14:43:20;6.07;;;3.60;;
4575;SDS011;2300;51.874;8.430;2024-02-14T14:45:47;5.13;;;3.60;;
4575;SDS011;2300;51.874;8.430;2024-02-14T14:48:14;7.37;;;3.80;;
4575;SDS011;2300;51.874;8.430;2024-02-14T14:50:41;5.13;;;3.37;;
4575;SDS011;2300;51.874;8.430;2024-02-14T14:53:08;5.60;;;3.10;;
4575;SDS011;2300;51.874;8.430;2024-02-14T14:55:50;5.50;;;2.97;;
4575;SDS011;2300;51.874;8.430;2024-02-14T14:58:17;3.63;;;2.23;;
4575;SDS011;2300;51.874;8.430;2024-02-14T15:00:44;5.30;;;2.23;;
4575;SDS011;2300;51.874;8.430;2024-02-14T15:03:11;3.60;;;2.47;;
4575;SDS011;2300;51.874;8.430;2024-02-14T15:05:38;4.30;;;2.37;;
4575;SDS011;2300;51.874;8.430;2024-02-14T15:08:05;4.93;;;2.40;;
4575;SDS011;2300;51.874;8.430;2024-02-14T15:10:32;6.50;;;3.30;;
4575;SDS011;2300;51.874;8.430;2024-02-14T15:13:00;9.00;;;4.07;;